createdAt,value
2023-03-04T00:00:49.000Z,0
2023-03-04T00:02:05.000Z,0
2023-03-04T00:03:21.000Z,0
2023-03-04T00:04:38.000Z,0
2023-03-04T00:05:54.000Z,0
2023-03-04T00:07:10.000Z,0
2023-03-04T00:08:26.000Z,0
2023-03-04T00:09:42.000Z,0
2023-03-04T00:10:59.000Z,0
2023-03-04T00:12:15.000Z,0
2023-03-04T00:13:31.000Z,0
2023-03-04T00:14:46.000Z,0
2023-03-04T00:16:02.000Z,0
2023-03-04T00:17:19.000Z,0
2023-03-04T00:18:35.000Z,0
2023-03-04T00:19:51.000Z,0
2023-03-04T00:21:07.000Z,0
2023-03-04T00:22:23.000Z,0
2023-03-04T00:23:39.000Z,0
2023-03-04T00:24:56.000Z,0
2023-03-04T00:26:12.000Z,0
2023-03-04T00:27:28.000Z,0
2023-03-04T00:28:44.000Z,0
2023-03-04T00:30:00.000Z,0
2023-03-04T00:31:16.000Z,0
2023-03-04T00:32:32.000Z,0
2023-03-04T00:33:48.000Z,0
2023-03-04T00:35:04.000Z,0
2023-03-04T00:36:20.000Z,0
2023-03-04T00:37:37.000Z,0
2023-03-04T00:38:53.000Z,0
2023-03-04T00:40:09.000Z,0
2023-03-04T00:41:25.000Z,0
2023-03-04T00:42:41.000Z,0
2023-03-04T00:43:58.000Z,0
2023-03-04T00:45:14.000Z,0
2023-03-04T00:46:30.000Z,0
2023-03-04T00:47:45.000Z,0
2023-03-04T00:49:01.000Z,0
2023-03-04T00:50:17.000Z,0
2023-03-04T00:51:34.000Z,0
2023-03-04T00:52:50.000Z,0
2023-03-04T00:54:06.000Z,0
2023-03-04T00:55:22.000Z,0
2023-03-04T00:56:38.000Z,0
2023-03-04T00:57:55.000Z,0
2023-03-04T00:59:11.000Z,0
2023-03-04T01:00:27.000Z,0
2023-03-04T01:01:43.000Z,0
2023-03-04T01:02:59.000Z,0
2023-03-04T01:04:15.000Z,0
2023-03-04T01:05:31.000Z,0
2023-03-04T01:06:47.000Z,0
2023-03-04T01:08:03.639Z,0
2023-03-04T01:09:19.000Z,0
2023-03-04T01:10:36.000Z,0
2023-03-04T01:11:52.000Z,0
2023-03-04T01:13:08.000Z,0
2023-03-04T01:14:24.000Z,0
2023-03-04T01:15:40.000Z,0
2023-03-04T01:16:57.000Z,0
2023-03-04T01:18:13.000Z,0
2023-03-04T01:19:29.000Z,0
2023-03-04T01:20:44.000Z,0
2023-03-04T01:22:00.000Z,0
2023-03-04T01:23:16.000Z,0
2023-03-04T01:24:33.000Z,0
2023-03-04T01:25:49.000Z,0
2023-03-04T01:27:05.000Z,0
2023-03-04T01:28:21.000Z,0
2023-03-04T01:29:37.000Z,0
2023-03-04T01:30:54.000Z,0
2023-03-04T01:32:10.000Z,0
2023-03-04T01:33:26.000Z,0
2023-03-04T01:34:42.000Z,0
2023-03-04T01:35:58.000Z,0
2023-03-04T01:37:14.000Z,0
2023-03-04T01:38:30.000Z,0
2023-03-04T01:39:46.000Z,0
2023-03-04T01:41:02.000Z,0
2023-03-04T01:42:18.000Z,0
2023-03-04T01:43:35.000Z,0
2023-03-04T01:44:51.000Z,0
2023-03-04T01:46:07.000Z,0
2023-03-04T01:47:23.000Z,0
2023-03-04T01:48:39.000Z,0
2023-03-04T01:49:56.000Z,0
2023-03-04T01:51:12.000Z,0
2023-03-04T01:52:28.000Z,0
2023-03-04T01:53:43.000Z,0
2023-03-04T01:54:59.000Z,0
2023-03-04T01:56:15.000Z,0
2023-03-04T01:57:32.000Z,0
2023-03-04T01:58:48.000Z,0
2023-03-04T02:00:04.000Z,0
2023-03-04T02:01:20.000Z,0
2023-03-04T02:02:36.000Z,0
2023-03-04T02:03:53.000Z,0
2023-03-04T02:05:09.000Z,0
2023-03-04T02:06:25.000Z,0
2023-03-04T02:07:41.000Z,0
2023-03-04T02:08:57.000Z,0
2023-03-04T02:10:13.000Z,0
2023-03-04T02:11:29.000Z,0
2023-03-04T02:12:45.000Z,0
2023-03-04T02:14:01.000Z,0
2023-03-04T02:15:17.000Z,0
2023-03-04T02:16:34.000Z,0
2023-03-04T02:17:50.000Z,0
2023-03-04T02:19:06.000Z,0
2023-03-04T02:20:22.000Z,0
2023-03-04T02:21:38.000Z,0
2023-03-04T02:22:55.000Z,0
2023-03-04T02:24:11.000Z,0
2023-03-04T02:25:27.000Z,0
2023-03-04T02:26:43.000Z,0
2023-03-04T02:27:58.000Z,0
2023-03-04T02:29:14.000Z,0
2023-03-04T02:30:31.000Z,0
2023-03-04T02:31:47.000Z,0
2023-03-04T02:33:03.000Z,0
2023-03-04T02:34:19.000Z,0
2023-03-04T02:35:35.000Z,0
2023-03-04T02:36:52.000Z,0
2023-03-04T02:38:08.000Z,0
2023-03-04T02:39:24.000Z,0
2023-03-04T02:40:40.631Z,0
2023-03-04T02:41:56.000Z,0
2023-03-04T02:43:13.000Z,0
2023-03-04T02:44:28.000Z,0
2023-03-04T02:45:44.000Z,0
2023-03-04T02:47:00.000Z,0
2023-03-04T02:48:16.000Z,0
2023-03-04T02:49:33.000Z,0
2023-03-04T02:50:48.000Z,0
2023-03-04T02:52:04.000Z,0
2023-03-04T02:53:20.000Z,0
2023-03-04T02:54:36.000Z,0
2023-03-04T02:55:53.000Z,0
2023-03-04T02:57:09.000Z,0
2023-03-04T02:58:25.000Z,0
2023-03-04T02:59:41.000Z,0
2023-03-04T03:00:57.000Z,0
2023-03-04T03:02:13.000Z,0
2023-03-04T03:03:30.000Z,0
2023-03-04T03:04:46.000Z,0
2023-03-04T03:06:02.000Z,0
2023-03-04T03:07:17.000Z,0
2023-03-04T03:08:33.000Z,0
2023-03-04T03:09:50.000Z,0
2023-03-04T03:11:06.000Z,0
2023-03-04T03:12:22.000Z,0
2023-03-04T03:13:38.000Z,0
2023-03-04T03:14:54.000Z,0
2023-03-04T03:16:11.000Z,0
2023-03-04T03:17:27.000Z,0
2023-03-04T03:18:43.000Z,0
2023-03-04T03:19:59.000Z,0
2023-03-04T03:21:15.000Z,0
2023-03-04T03:22:32.000Z,0
2023-03-04T03:23:47.000Z,0
2023-03-04T03:25:03.000Z,0
2023-03-04T03:26:19.000Z,0
2023-03-04T03:27:35.000Z,0
2023-03-04T03:28:52.000Z,0
2023-03-04T03:30:08.000Z,0
2023-03-04T03:31:24.000Z,0
2023-03-04T03:32:40.000Z,0
2023-03-04T03:33:56.000Z,0
2023-03-04T03:35:12.000Z,0
2023-03-04T03:36:29.000Z,0
2023-03-04T03:37:45.000Z,0
2023-03-04T03:39:01.000Z,0
2023-03-04T03:40:17.000Z,0
2023-03-04T03:41:32.000Z,0
2023-03-04T03:42:49.000Z,0
2023-03-04T03:44:05.000Z,0
2023-03-04T03:45:21.000Z,0
2023-03-04T03:46:37.000Z,0
2023-03-04T03:47:53.000Z,0
2023-03-04T03:49:10.000Z,0
2023-03-04T03:50:26.000Z,0
2023-03-04T03:51:42.000Z,0
2023-03-04T03:52:58.000Z,0
2023-03-04T03:54:14.000Z,0
2023-03-04T03:55:31.000Z,0
2023-03-04T03:56:47.000Z,0
2023-03-04T03:58:02.000Z,0
2023-03-04T03:59:18.000Z,0
2023-03-04T04:00:34.000Z,0
2023-03-04T04:01:50.000Z,0
2023-03-04T04:03:07.000Z,0
2023-03-04T04:04:23.000Z,0
2023-03-04T04:05:39.000Z,0
2023-03-04T04:06:55.000Z,0
2023-03-04T04:08:11.000Z,0
2023-03-04T04:09:28.000Z,0
2023-03-04T04:10:44.000Z,0
2023-03-04T04:12:00.000Z,0
2023-03-04T04:13:16.000Z,0
2023-03-04T04:14:31.000Z,0
2023-03-04T04:15:48.000Z,0
2023-03-04T04:17:04.000Z,0
2023-03-04T04:18:20.000Z,0
2023-03-04T04:19:36.000Z,0
2023-03-04T04:20:52.000Z,0
2023-03-04T04:22:09.000Z,0
2023-03-04T04:23:25.000Z,0
2023-03-04T04:24:41.000Z,0
2023-03-04T04:25:57.000Z,0
2023-03-04T04:27:13.000Z,0
2023-03-04T04:28:30.000Z,0
2023-03-04T04:29:46.000Z,0
2023-03-04T04:31:01.000Z,0
2023-03-04T04:32:17.000Z,0
2023-03-04T04:33:33.000Z,0
2023-03-04T04:34:49.000Z,0
2023-03-04T04:36:06.107Z,0
2023-03-04T04:37:22.000Z,0
2023-03-04T04:38:38.000Z,0
2023-03-04T04:39:54.000Z,0
2023-03-04T04:41:10.000Z,0
2023-03-04T04:42:27.000Z,0
2023-03-04T04:43:43.000Z,0
2023-03-04T04:44:59.000Z,0
2023-03-04T04:46:15.000Z,0
2023-03-04T04:47:30.000Z,0
2023-03-04T04:48:47.000Z,0
2023-03-04T04:50:03.000Z,0
2023-03-04T04:51:19.000Z,0
2023-03-04T04:52:35.000Z,0
2023-03-04T04:53:51.000Z,0
2023-03-04T04:55:08.000Z,0
2023-03-04T04:56:24.000Z,0
2023-03-04T04:57:40.000Z,0
2023-03-04T04:58:56.000Z,0
2023-03-04T05:00:12.000Z,0
2023-03-04T05:01:29.000Z,0
2023-03-04T05:02:45.000Z,0
2023-03-04T05:04:00.000Z,0
2023-03-04T05:05:16.000Z,0
2023-03-04T05:06:32.000Z,0
2023-03-04T05:07:48.000Z,0
2023-03-04T05:09:05.000Z,0
2023-03-04T05:10:21.000Z,0
2023-03-04T05:11:37.000Z,0
2023-03-04T05:12:53.000Z,0
2023-03-04T05:14:09.000Z,0
2023-03-04T05:15:26.000Z,0
2023-03-04T05:16:42.000Z,0
2023-03-04T05:17:58.000Z,0
2023-03-04T05:19:14.000Z,0
2023-03-04T05:20:29.000Z,0
2023-03-04T05:21:46.000Z,0
2023-03-04T05:23:02.000Z,0
2023-03-04T05:24:18.000Z,0
2023-03-04T05:25:34.000Z,0
2023-03-04T05:26:50.000Z,0
2023-03-04T05:28:07.000Z,0
2023-03-04T05:29:23.000Z,0
2023-03-04T05:30:39.000Z,0
2023-03-04T05:31:55.000Z,0
2023-03-04T05:33:11.000Z,0
2023-03-04T05:34:28.000Z,0
2023-03-04T05:35:44.000Z,0
2023-03-04T05:36:59.000Z,0
2023-03-04T05:38:15.000Z,0
2023-03-04T05:39:31.000Z,0
2023-03-04T05:40:47.000Z,0
2023-03-04T05:42:04.000Z,0
2023-03-04T05:43:20.000Z,0
2023-03-04T05:44:36.000Z,0
2023-03-04T05:45:52.000Z,0
2023-03-04T05:47:08.000Z,0
2023-03-04T05:48:25.000Z,0
2023-03-04T05:49:41.000Z,0
2023-03-04T05:50:57.000Z,0
2023-03-04T05:52:13.000Z,0
2023-03-04T05:53:28.000Z,0
2023-03-04T05:54:45.000Z,0
2023-03-04T05:56:01.000Z,0
2023-03-04T05:57:17.000Z,0
2023-03-04T05:58:33.000Z,0
2023-03-04T05:59:49.000Z,0
2023-03-04T06:01:06.000Z,0
2023-03-04T06:02:22.000Z,0
2023-03-04T06:03:38.000Z,0
2023-03-04T06:04:54.000Z,0
2023-03-04T06:06:10.000Z,0
2023-03-04T06:07:27.000Z,0
2023-03-04T06:08:43.000Z,0
2023-03-04T06:09:58.000Z,0
2023-03-04T06:11:14.000Z,0
2023-03-04T06:12:30.000Z,5
2023-03-04T06:13:46.000Z,5
2023-03-04T06:15:03.000Z,5
2023-03-04T06:16:19.000Z,5
2023-03-04T06:17:35.000Z,5
2023-03-04T06:18:51.000Z,11
2023-03-04T06:20:07.000Z,11
2023-03-04T06:21:24.000Z,16
2023-03-04T06:22:40.000Z,16
2023-03-04T06:23:56.000Z,16
2023-03-04T06:25:12.000Z,16
2023-03-04T06:26:27.000Z,22
2023-03-04T06:27:44.000Z,22
2023-03-04T06:29:00.000Z,22
2023-03-04T06:30:16.000Z,28
2023-03-04T06:31:32.000Z,28
2023-03-04T06:32:48.000Z,28
2023-03-04T06:34:05.000Z,33
2023-03-04T06:35:21.000Z,33
2023-03-04T06:36:37.000Z,39
2023-03-04T06:37:53.000Z,50
2023-03-04T06:39:09.000Z,50
2023-03-04T06:40:26.000Z,45
2023-03-04T06:41:42.000Z,45
2023-03-04T06:42:57.000Z,39
2023-03-04T06:44:13.000Z,45
2023-03-04T06:45:29.000Z,45
2023-03-04T06:46:45.000Z,56
2023-03-04T06:48:02.000Z,73
2023-03-04T06:49:18.000Z,84
2023-03-04T06:50:34.000Z,101
2023-03-04T06:51:50.000Z,95
2023-03-04T06:53:06.000Z,90
2023-03-04T06:54:23.000Z,95
2023-03-04T06:55:39.000Z,106
2023-03-04T06:56:55.000Z,118
2023-03-04T06:58:11.000Z,129
2023-03-04T06:59:26.000Z,146
2023-03-04T07:00:43.000Z,140
2023-03-04T07:01:59.000Z,135
2023-03-04T07:03:15.000Z,140
2023-03-04T07:04:31.000Z,140
2023-03-04T07:05:46.000Z,135
2023-03-04T07:07:03.000Z,129
2023-03-04T07:08:19.000Z,135
2023-03-04T07:09:35.000Z,151
2023-03-04T07:10:51.000Z,157
2023-03-04T07:12:07.000Z,168
2023-03-04T07:13:24.000Z,168
2023-03-04T07:14:40.000Z,174
2023-03-04T07:15:56.000Z,180
2023-03-04T07:17:12.000Z,174
2023-03-04T07:18:28.000Z,174
2023-03-04T07:19:44.000Z,174
2023-03-04T07:21:01.000Z,180
2023-03-04T07:22:16.000Z,174
2023-03-04T07:23:32.000Z,146
2023-03-04T07:24:48.000Z,140
2023-03-04T07:26:04.000Z,151
2023-03-04T07:27:21.000Z,163
2023-03-04T07:28:37.000Z,180
2023-03-04T07:29:53.000Z,185
2023-03-04T07:31:09.000Z,185
2023-03-04T07:32:25.000Z,196
2023-03-04T07:33:42.000Z,230
2023-03-04T07:34:58.000Z,253
2023-03-04T07:36:14.000Z,264
2023-03-04T07:37:30.000Z,253
2023-03-04T07:38:45.000Z,258
2023-03-04T07:40:02.000Z,281
2023-03-04T07:41:18.000Z,281
2023-03-04T07:42:34.000Z,258
2023-03-04T07:43:50.000Z,253
2023-03-04T07:45:06.000Z,264
2023-03-04T07:46:23.000Z,270
2023-03-04T07:47:39.000Z,247
2023-03-04T07:48:55.000Z,225
2023-03-04T07:50:11.000Z,230
2023-03-04T07:51:27.000Z,202
2023-03-04T07:52:43.000Z,196
2023-03-04T07:54:00.000Z,219
2023-03-04T07:55:15.000Z,253
2023-03-04T07:56:31.000Z,270
2023-03-04T07:57:47.000Z,230
2023-03-04T07:59:03.000Z,241
2023-03-04T08:00:20.000Z,292
2023-03-04T08:01:36.000Z,281
2023-03-04T08:02:52.000Z,309
2023-03-04T08:04:08.000Z,275
2023-03-04T08:05:24.000Z,275
2023-03-04T08:06:41.000Z,286
2023-03-04T08:07:57.000Z,258
2023-03-04T08:09:13.000Z,241
2023-03-04T08:10:29.000Z,253
2023-03-04T08:11:44.000Z,326
2023-03-04T08:13:01.000Z,376
2023-03-04T08:14:17.000Z,326
2023-03-04T08:15:33.000Z,241
2023-03-04T08:16:49.000Z,247
2023-03-04T08:18:05.000Z,225
2023-03-04T08:19:21.000Z,253
2023-03-04T08:20:38.000Z,292
2023-03-04T08:21:54.000Z,213
2023-03-04T08:23:10.000Z,230
2023-03-04T08:24:26.000Z,331
2023-03-04T08:25:42.000Z,354
2023-03-04T08:26:59.000Z,309
2023-03-04T08:28:14.000Z,270
2023-03-04T08:29:30.000Z,275
2023-03-04T08:30:46.000Z,247
2023-03-04T08:32:02.000Z,247
2023-03-04T08:33:19.000Z,264
2023-03-04T08:34:35.000Z,281
2023-03-04T08:35:51.000Z,247
2023-03-04T08:37:07.000Z,253
2023-03-04T08:38:23.000Z,258
2023-03-04T08:39:40.000Z,281
2023-03-04T08:40:56.000Z,286
2023-03-04T08:42:12.000Z,331
2023-03-04T08:43:28.000Z,393
2023-03-04T08:44:43.000Z,343
2023-03-04T08:46:00.000Z,348
2023-03-04T08:47:16.000Z,388
2023-03-04T08:48:32.000Z,326
2023-03-04T08:49:48.000Z,337
2023-03-04T08:51:04.000Z,348
2023-03-04T08:52:20.000Z,393
2023-03-04T08:53:37.000Z,382
2023-03-04T08:54:53.000Z,489
2023-03-04T08:56:09.000Z,556
2023-03-04T08:57:25.000Z,528
2023-03-04T08:58:41.000Z,601
2023-03-04T08:59:58.000Z,585
2023-03-04T09:01:13.000Z,478
2023-03-04T09:02:29.000Z,450
2023-03-04T09:03:45.000Z,455
2023-03-04T09:05:01.000Z,438
2023-03-04T09:06:18.000Z,478
2023-03-04T09:07:34.000Z,523
2023-03-04T09:08:50.000Z,562
2023-03-04T09:10:06.000Z,528
2023-03-04T09:11:22.000Z,483
2023-03-04T09:12:39.000Z,416
2023-03-04T09:13:55.000Z,478
2023-03-04T09:15:11.000Z,540
2023-03-04T09:16:27.000Z,545
2023-03-04T09:17:42.000Z,461
2023-03-04T09:18:59.000Z,483
2023-03-04T09:20:15.000Z,618
2023-03-04T09:21:31.000Z,888
2023-03-04T09:22:47.000Z,720
2023-03-04T09:24:03.000Z,506
2023-03-04T09:25:19.000Z,630
2023-03-04T09:26:36.000Z,697
2023-03-04T09:27:52.000Z,590
2023-03-04T09:29:08.000Z,613
2023-03-04T09:30:24.000Z,607
2023-03-04T09:31:40.000Z,438
2023-03-04T09:32:57.000Z,320
2023-03-04T09:34:12.000Z,393
2023-03-04T09:35:28.000Z,331
2023-03-04T09:36:44.000Z,320
2023-03-04T09:38:00.000Z,292
2023-03-04T09:39:17.000Z,399
2023-03-04T09:40:33.000Z,343
2023-03-04T09:41:49.000Z,433
2023-03-04T09:43:05.000Z,551
2023-03-04T09:44:21.000Z,343
2023-03-04T09:45:38.000Z,315
2023-03-04T09:46:54.000Z,433
2023-03-04T09:48:10.000Z,579
2023-03-04T09:49:26.000Z,551
2023-03-04T09:50:41.000Z,478
2023-03-04T09:51:58.000Z,489
2023-03-04T09:53:14.000Z,540
2023-03-04T09:54:30.000Z,540
2023-03-04T09:55:46.000Z,607
2023-03-04T09:57:02.000Z,686
2023-03-04T09:58:18.000Z,421
2023-03-04T09:59:35.000Z,376
2023-03-04T10:00:51.000Z,354
2023-03-04T10:02:07.000Z,281
2023-03-04T10:03:23.000Z,298
2023-03-04T10:04:39.000Z,354
2023-03-04T10:05:56.000Z,343
2023-03-04T10:07:11.000Z,410
2023-03-04T10:08:27.000Z,472
2023-03-04T10:09:43.000Z,573
2023-03-04T10:10:59.000Z,714
2023-03-04T10:12:16.000Z,708
2023-03-04T10:13:32.000Z,652
2023-03-04T10:14:48.000Z,641
2023-03-04T10:16:04.000Z,646
2023-03-04T10:17:20.000Z,624
2023-03-04T10:18:37.000Z,686
2023-03-04T10:19:53.000Z,697
2023-03-04T10:21:09.000Z,742
2023-03-04T10:22:25.000Z,731
2023-03-04T10:23:40.000Z,742
2023-03-04T10:24:56.000Z,686
2023-03-04T10:26:13.000Z,551
2023-03-04T10:27:29.000Z,416
2023-03-04T10:28:45.000Z,393
2023-03-04T10:30:01.000Z,405
2023-03-04T10:31:17.000Z,438
2023-03-04T10:32:34.000Z,365
2023-03-04T10:33:50.000Z,410
2023-03-04T10:35:06.000Z,540
2023-03-04T10:36:22.000Z,528
2023-03-04T10:37:38.000Z,607
2023-03-04T10:38:55.000Z,663
2023-03-04T10:40:11.000Z,433
2023-03-04T10:41:27.000Z,405
2023-03-04T10:42:43.000Z,331
2023-03-04T10:43:59.000Z,371
2023-03-04T10:45:16.000Z,371
2023-03-04T10:46:32.000Z,281
2023-03-04T10:47:48.000Z,236
2023-03-04T10:49:04.000Z,241
2023-03-04T10:50:20.000Z,286
2023-03-04T10:51:37.000Z,348
2023-03-04T10:52:53.000Z,360
2023-03-04T10:54:09.000Z,388
2023-03-04T10:55:25.000Z,365
2023-03-04T10:56:40.000Z,416
2023-03-04T10:57:57.000Z,354
2023-03-04T10:59:13.000Z,427
2023-03-04T11:00:29.000Z,489
2023-03-04T11:01:45.000Z,669
2023-03-04T11:03:01.000Z,517
2023-03-04T11:04:17.000Z,607
2023-03-04T11:05:34.000Z,534
2023-03-04T11:06:50.000Z,506
2023-03-04T11:08:06.000Z,534
2023-03-04T11:09:22.000Z,495
2023-03-04T11:10:38.000Z,393
2023-03-04T11:11:55.000Z,365
2023-03-04T11:13:11.000Z,348
2023-03-04T11:14:26.000Z,315
2023-03-04T11:15:42.000Z,466
2023-03-04T11:16:58.000Z,540
2023-03-04T11:18:15.000Z,461
2023-03-04T11:19:31.000Z,585
2023-03-04T11:20:46.000Z,388
2023-03-04T11:22:02.000Z,258
2023-03-04T11:23:18.000Z,253
2023-03-04T11:24:35.000Z,191
2023-03-04T11:25:51.000Z,168
2023-03-04T11:27:07.000Z,129
2023-03-04T11:28:23.000Z,123
2023-03-04T11:29:39.000Z,123
2023-03-04T11:30:55.000Z,112
2023-03-04T11:32:12.000Z,112
2023-03-04T11:33:28.000Z,106
2023-03-04T11:34:44.000Z,101
2023-03-04T11:36:00.000Z,118
2023-03-04T11:37:16.000Z,112
2023-03-04T11:38:32.000Z,95
2023-03-04T11:39:48.000Z,84
2023-03-04T11:41:04.000Z,67
2023-03-04T11:42:20.000Z,61
2023-03-04T11:43:36.000Z,61
2023-03-04T11:44:53.000Z,78
2023-03-04T11:46:09.000Z,129
2023-03-04T11:47:25.000Z,140
2023-03-04T11:48:41.000Z,185
2023-03-04T11:49:57.000Z,180
2023-03-04T11:51:14.000Z,191
2023-03-04T11:52:30.000Z,219
2023-03-04T11:53:46.000Z,264
2023-03-04T11:55:02.000Z,264
2023-03-04T11:56:17.000Z,303
2023-03-04T11:57:33.000Z,343
2023-03-04T11:58:50.000Z,365
2023-03-04T12:00:06.000Z,410
2023-03-04T12:01:22.000Z,450
2023-03-04T12:02:38.000Z,568
2023-03-04T12:03:54.000Z,624
2023-03-04T12:05:11.000Z,641
2023-03-04T12:06:27.000Z,624
2023-03-04T12:07:43.000Z,585
2023-03-04T12:08:59.000Z,540
2023-03-04T12:10:15.812Z,556
2023-03-04T12:11:32.000Z,579
2023-03-04T12:12:47.000Z,590
2023-03-04T12:14:03.000Z,540
2023-03-04T12:15:19.000Z,562
2023-03-04T12:16:35.000Z,534
2023-03-04T12:17:52.000Z,511
2023-03-04T12:19:08.000Z,545
2023-03-04T12:20:24.000Z,618
2023-03-04T12:21:40.000Z,646
2023-03-04T12:22:56.000Z,658
2023-03-04T12:24:12.000Z,613
2023-03-04T12:25:29.000Z,680
2023-03-04T12:26:45.000Z,753
2023-03-04T12:28:01.000Z,691
2023-03-04T12:29:16.000Z,725
2023-03-04T12:30:32.000Z,1063
2023-03-04T12:31:49.000Z,1209
2023-03-04T12:33:05.000Z,860
2023-03-04T12:34:21.000Z,765
2023-03-04T12:35:37.000Z,624
2023-03-04T12:36:53.000Z,495
2023-03-04T12:38:10.000Z,450
2023-03-04T12:39:26.000Z,376
2023-03-04T12:40:42.000Z,309
2023-03-04T12:41:58.000Z,286
2023-03-04T12:43:14.000Z,264
2023-03-04T12:44:31.000Z,236
2023-03-04T12:45:46.000Z,303
2023-03-04T12:47:02.000Z,309
2023-03-04T12:48:18.614Z,303
2023-03-04T12:49:34.000Z,348
2023-03-04T12:50:50.000Z,343
2023-03-04T12:52:07.000Z,382
2023-03-04T12:53:23.000Z,421
2023-03-04T12:54:39.000Z,438
2023-03-04T12:55:55.000Z,450
2023-03-04T12:57:11.000Z,410
2023-03-04T12:58:28.000Z,399
2023-03-04T12:59:44.000Z,416
2023-03-04T13:01:00.000Z,450
2023-03-04T13:02:15.000Z,540
2023-03-04T13:03:31.000Z,641
2023-03-04T13:04:48.000Z,950
2023-03-04T13:06:04.000Z,781
2023-03-04T13:07:20.000Z,793
2023-03-04T13:08:36.000Z,2171
2023-03-04T13:09:52.000Z,478
2023-03-04T13:11:09.000Z,354
2023-03-04T13:12:25.000Z,264
2023-03-04T13:13:41.000Z,202
2023-03-04T13:14:57.000Z,146
2023-03-04T13:16:13.000Z,112
2023-03-04T13:17:29.000Z,101
2023-03-04T13:18:45.000Z,106
2023-03-04T13:20:01.000Z,118
2023-03-04T13:21:17.000Z,140
2023-03-04T13:22:33.000Z,157
2023-03-04T13:23:49.000Z,208
2023-03-04T13:25:06.000Z,286
2023-03-04T13:26:22.000Z,360
2023-03-04T13:27:38.000Z,421
2023-03-04T13:28:54.000Z,438
2023-03-04T13:30:10.000Z,472
2023-03-04T13:31:26.987Z,545
2023-03-04T13:32:43.000Z,663
2023-03-04T13:33:59.000Z,961
2023-03-04T13:35:14.000Z,669
2023-03-04T13:36:30.000Z,680
2023-03-04T13:37:47.000Z,680
2023-03-04T13:39:03.000Z,697
2023-03-04T13:40:19.000Z,652
2023-03-04T13:41:35.000Z,517
2023-03-04T13:42:51.000Z,450
2023-03-04T13:44:07.000Z,410
2023-03-04T13:45:24.000Z,433
2023-03-04T13:46:40.000Z,382
2023-03-04T13:47:56.000Z,337
2023-03-04T13:49:12.000Z,315
2023-03-04T13:50:28.000Z,315
2023-03-04T13:51:44.000Z,315
2023-03-04T13:54:16.000Z,241
2023-03-04T13:55:32.000Z,270
2023-03-04T13:56:48.000Z,315
2023-03-04T13:58:05.000Z,382
2023-03-04T13:59:21.000Z,444
2023-03-04T14:00:37.000Z,438
2023-03-04T14:01:53.000Z,320
2023-03-04T14:03:09.000Z,315
2023-03-04T14:04:26.000Z,382
2023-03-04T14:05:42.000Z,416
2023-03-04T14:06:58.000Z,466
2023-03-04T14:08:13.000Z,528
2023-03-04T14:09:29.000Z,540
2023-03-04T14:10:45.000Z,495
2023-03-04T14:12:02.000Z,416
2023-03-04T14:13:18.000Z,399
2023-03-04T14:14:34.000Z,410
2023-03-04T14:15:50.000Z,421
2023-03-04T14:17:06.000Z,410
2023-03-04T14:18:23.000Z,388
2023-03-04T14:19:39.000Z,360
2023-03-04T14:20:55.000Z,348
2023-03-04T14:22:11.000Z,365
2023-03-04T14:23:27.000Z,348
2023-03-04T14:24:43.000Z,337
2023-03-04T14:25:59.000Z,337
2023-03-04T14:27:15.000Z,343
2023-03-04T14:28:31.000Z,399
2023-03-04T14:29:47.000Z,421
2023-03-04T14:31:04.000Z,410
2023-03-04T14:32:20.000Z,388
2023-03-04T14:33:36.000Z,382
2023-03-04T14:34:52.000Z,399
2023-03-04T14:36:08.000Z,376
2023-03-04T14:37:24.000Z,376
2023-03-04T14:38:41.000Z,348
2023-03-04T14:39:57.000Z,365
2023-03-04T14:41:12.000Z,337
2023-03-04T14:42:28.000Z,320
2023-03-04T14:43:44.000Z,270
2023-03-04T14:45:01.000Z,264
2023-03-04T14:46:17.000Z,275
2023-03-04T14:47:33.000Z,281
2023-03-04T14:48:49.000Z,270
2023-03-04T14:50:05.000Z,264
2023-03-04T14:51:22.000Z,258
2023-03-04T14:52:38.000Z,258
2023-03-04T14:53:54.000Z,331
2023-03-04T14:55:10.000Z,354
2023-03-04T14:56:26.000Z,348
2023-03-04T14:57:42.000Z,354
2023-03-04T14:58:58.000Z,354
2023-03-04T15:00:14.000Z,354
2023-03-04T15:01:30.000Z,360
2023-03-04T15:02:46.000Z,376
2023-03-04T15:04:02.000Z,371
2023-03-04T15:05:19.000Z,365
2023-03-04T15:06:35.000Z,337
2023-03-04T15:07:51.000Z,337
2023-03-04T15:09:07.000Z,343
2023-03-04T15:10:23.000Z,343
2023-03-04T15:11:40.000Z,343
2023-03-04T15:12:56.000Z,354
2023-03-04T15:14:11.000Z,320
2023-03-04T15:15:27.000Z,281
2023-03-04T15:16:43.000Z,253
2023-03-04T15:18:00.000Z,247
2023-03-04T15:19:16.000Z,225
2023-03-04T15:20:32.000Z,213
2023-03-04T15:21:48.000Z,208
2023-03-04T15:23:04.000Z,180
2023-03-04T15:24:21.000Z,151
2023-03-04T15:25:37.000Z,140
2023-03-04T15:26:53.000Z,129
2023-03-04T15:28:09.000Z,123
2023-03-04T15:29:25.000Z,129
2023-03-04T15:30:40.000Z,151
2023-03-04T15:31:57.000Z,163
2023-03-04T15:33:13.000Z,157
2023-03-04T15:34:29.000Z,151
2023-03-04T15:35:44.000Z,146
2023-03-04T15:37:00.000Z,146
2023-03-04T15:38:17.000Z,146
2023-03-04T15:39:33.000Z,146
2023-03-04T15:40:49.000Z,140
2023-03-04T15:42:05.000Z,118
2023-03-04T15:43:21.000Z,112
2023-03-04T15:44:38.000Z,95
2023-03-04T15:45:54.000Z,78
2023-03-04T15:47:10.000Z,84
2023-03-04T15:48:26.000Z,95
2023-03-04T15:49:42.000Z,106
2023-03-04T15:50:59.000Z,112
2023-03-04T15:52:14.000Z,129
2023-03-04T15:53:30.000Z,146
2023-03-04T15:54:46.000Z,163
2023-03-04T15:56:02.000Z,163
2023-03-04T15:57:18.000Z,163
2023-03-04T15:58:35.000Z,168
2023-03-04T15:59:51.000Z,185
2023-03-04T16:01:07.000Z,202
2023-03-04T16:02:23.000Z,174
2023-03-04T16:03:39.000Z,157
2023-03-04T16:04:56.000Z,146
2023-03-04T16:06:12.000Z,135
2023-03-04T16:07:28.000Z,123
2023-03-04T16:08:43.000Z,118
2023-03-04T16:09:59.000Z,112
2023-03-04T16:11:16.000Z,101
2023-03-04T16:12:32.000Z,101
2023-03-04T16:13:48.000Z,95
2023-03-04T16:15:04.000Z,84
2023-03-04T16:16:20.000Z,61
2023-03-04T16:17:37.000Z,45
2023-03-04T16:18:53.000Z,28
2023-03-04T16:20:09.000Z,28
2023-03-04T16:21:25.000Z,28
2023-03-04T16:23:57.000Z,28
2023-03-04T16:25:13.000Z,33
2023-03-04T16:26:29.000Z,45
2023-03-04T16:27:45.000Z,39
2023-03-04T16:29:01.000Z,45
2023-03-04T16:30:17.000Z,56
2023-03-04T16:31:34.000Z,61
2023-03-04T16:32:50.000Z,61
2023-03-04T16:34:06.000Z,61
2023-03-04T16:35:22.000Z,67
2023-03-04T16:36:38.000Z,73
2023-03-04T16:37:55.000Z,67
2023-03-04T16:39:11.000Z,61
2023-03-04T16:40:27.000Z,61
2023-03-04T16:41:42.000Z,56
2023-03-04T16:42:58.000Z,50
2023-03-04T16:44:15.000Z,56
2023-03-04T16:45:31.000Z,56
2023-03-04T16:46:47.000Z,56
2023-03-04T16:48:03.000Z,50
2023-03-04T16:49:19.000Z,50
2023-03-04T16:50:35.000Z,45
2023-03-04T16:51:52.000Z,45
2023-03-04T16:53:08.000Z,39
2023-03-04T16:54:24.000Z,39
2023-03-04T16:55:40.000Z,33
2023-03-04T16:56:56.000Z,33
2023-03-04T16:58:12.000Z,33
2023-03-04T16:59:28.000Z,28
2023-03-04T17:00:44.000Z,22
2023-03-04T17:02:00.000Z,16
2023-03-04T17:03:16.000Z,11
2023-03-04T17:04:33.000Z,5
2023-03-04T17:05:49.000Z,5
2023-03-04T17:07:05.000Z,5
2023-03-04T17:08:21.000Z,5
2023-03-04T17:09:37.000Z,5
2023-03-04T17:10:54.000Z,5
2023-03-04T17:12:10.000Z,5
2023-03-04T17:13:26.000Z,5
2023-03-04T17:14:41.000Z,5
2023-03-04T17:15:57.000Z,5
2023-03-04T17:17:13.000Z,5
2023-03-04T17:18:30.000Z,5
2023-03-04T17:19:46.000Z,5
2023-03-04T17:21:02.000Z,0
2023-03-04T17:22:18.000Z,0
2023-03-04T17:23:34.000Z,0
2023-03-04T17:24:51.000Z,0
2023-03-04T17:26:07.000Z,0
2023-03-04T17:27:23.000Z,0
2023-03-04T17:28:39.000Z,0
2023-03-04T17:29:55.000Z,0
2023-03-04T17:31:11.000Z,0
2023-03-04T17:32:27.000Z,0
2023-03-04T17:33:43.000Z,0
2023-03-04T17:34:59.000Z,0
2023-03-04T17:36:15.000Z,0
2023-03-04T17:37:32.000Z,0
2023-03-04T17:38:48.000Z,0
2023-03-04T17:40:04.000Z,0
2023-03-04T17:41:20.000Z,0
2023-03-04T17:42:36.000Z,0
2023-03-04T17:43:52.000Z,0
2023-03-04T17:45:09.000Z,0
2023-03-04T17:46:25.000Z,0
2023-03-04T17:47:40.000Z,0
2023-03-04T17:48:56.000Z,0
2023-03-04T17:50:12.000Z,0
2023-03-04T17:51:29.000Z,0
2023-03-04T17:52:45.000Z,0
2023-03-04T17:54:01.000Z,0
2023-03-04T17:55:17.000Z,0
2023-03-04T17:56:33.000Z,0
2023-03-04T17:57:50.000Z,0
2023-03-04T17:59:06.000Z,0
2023-03-04T18:00:22.000Z,0
2023-03-04T18:01:38.000Z,0
2023-03-04T18:02:54.000Z,0
2023-03-04T18:04:10.000Z,0